Terminal Aerodrome Forecast
Issued by NWS Huntsville, AL

Home | Current Version | Previous Version | Text Only | Print | Product List | Glossary On
Versions: 1 2 3 4 5 6 7 8 9 10 11 12 13 14 15 16 17 18 19 20 21 22 23 24 25 26 27 28 29 30
000
FTUS44 KHUN 202320
TAFMSL
TAF
KMSL 202320Z 2100/2124 VRB03KT P6SM SCT150
     FM210100 00000KT P6SM SKC
     FM210400 00000KT 3SM BR SKC
      TEMPO 2109/2113 1/2SM FG
     FM211400 34006KT P6SM SKC=

USA.gov is the U.S. government's official web portal to all federal, state and local government web resources and services.